createdAt,value
2022-08-07T00:01:44.133Z,99.90
2022-08-07T00:04:06.805Z,99.90
2022-08-07T00:06:36.687Z,99.90
2022-08-07T00:09:17.253Z,99.90
2022-08-07T00:11:56.166Z,99.90
2022-08-07T00:14:30.062Z,99.90
2022-08-07T00:17:02.507Z,99.90
2022-08-07T00:19:59.595Z,99.90
2022-08-07T00:22:24.815Z,99.90
2022-08-07T00:25:02.718Z,99.90
2022-08-07T00:27:52.965Z,99.90
2022-08-07T00:30:27.745Z,99.90
2022-08-07T00:32:57.204Z,99.90
2022-08-07T00:35:24.214Z,99.90
2022-08-07T00:37:51.192Z,99.90
2022-08-07T00:40:39.724Z,99.90
2022-08-07T00:43:09.867Z,99.90
2022-08-07T00:45:42.254Z,99.90
2022-08-07T00:48:13.575Z,99.90
2022-08-07T00:50:46.198Z,99.90
2022-08-07T00:53:18.274Z,99.90
2022-08-07T00:56:02.613Z,99.90
2022-08-07T00:58:31.390Z,99.90
2022-08-07T01:00:58.855Z,99.90
2022-08-07T01:03:54.753Z,99.90
2022-08-07T01:06:13.123Z,99.90
2022-08-07T01:08:43.045Z,99.90
2022-08-07T01:12:04.564Z,99.90
2022-08-07T01:13:57.995Z,99.90
2022-08-07T01:16:30.309Z,99.90
2022-08-07T01:18:57.964Z,99.90
2022-08-07T01:21:26.994Z,99.90
2022-08-07T01:23:57.548Z,99.90
2022-08-07T01:26:26.036Z,99.90
2022-08-07T01:28:54.209Z,99.90
2022-08-07T01:31:27.797Z,99.90
2022-08-07T01:34:08.485Z,99.90
2022-08-07T01:36:40.718Z,99.90
2022-08-07T01:39:09.775Z,99.90
2022-08-07T01:41:39.081Z,99.90
2022-08-07T01:44:07.690Z,99.90
2022-08-07T01:46:34.894Z,99.90
2022-08-07T01:49:02.732Z,99.90
2022-08-07T01:52:04.299Z,99.90
2022-08-07T01:54:32.531Z,99.90
2022-08-07T01:57:24.249Z,99.90
2022-08-07T02:00:13.382Z,99.90
2022-08-07T02:03:19.399Z,99.90
2022-08-07T02:05:48.617Z,99.90
2022-08-07T02:08:29.362Z,99.90
2022-08-07T02:10:59.360Z,99.90
2022-08-07T02:13:57.981Z,99.90
2022-08-07T02:16:18.151Z,99.90
2022-08-07T02:18:51.210Z,99.90
2022-08-07T02:21:19.273Z,99.90
2022-08-07T02:23:46.615Z,99.90
2022-08-07T02:26:33.106Z,99.90
2022-08-07T02:29:04.820Z,99.90
2022-08-07T02:31:32.755Z,99.90
2022-08-07T02:34:11.300Z,99.90
2022-08-07T02:36:45.341Z,99.90
2022-08-07T02:39:16.658Z,99.90
2022-08-07T02:42:03.382Z,99.90
2022-08-07T02:44:39.736Z,99.90
2022-08-07T02:47:19.584Z,99.90
2022-08-07T02:49:58.722Z,99.90
2022-08-07T02:52:33.904Z,99.90
2022-08-07T02:55:27.300Z,99.90
2022-08-07T02:57:55.607Z,99.90
2022-08-07T03:00:24.112Z,99.90
2022-08-07T03:02:54.307Z,99.90
2022-08-07T03:05:23.247Z,99.90
2022-08-07T03:08:05.301Z,99.90
2022-08-07T03:10:46.197Z,99.90
2022-08-07T03:13:19.701Z,99.90
2022-08-07T03:15:56.188Z,99.90
2022-08-07T03:18:35.008Z,99.90
2022-08-07T03:21:08.434Z,99.90
2022-08-07T03:24:19.406Z,99.90
2022-08-07T03:26:31.878Z,99.90
2022-08-07T03:29:01.769Z,99.90
2022-08-07T03:31:43.451Z,99.90
2022-08-07T03:34:18.226Z,99.90
2022-08-07T03:36:50.040Z,99.90
2022-08-07T03:39:17.972Z,99.90
2022-08-07T03:42:06.004Z,99.90
2022-08-07T03:44:35.912Z,99.90
2022-08-07T03:47:13.777Z,99.90
2022-08-07T03:49:47.652Z,99.90
2022-08-07T03:52:26.515Z,99.90
2022-08-07T03:54:59.006Z,99.90
2022-08-07T03:58:34.861Z,99.90
2022-08-07T04:00:29.224Z,99.90
2022-08-07T04:02:59.035Z,99.90
2022-08-07T04:05:39.272Z,99.90
2022-08-07T04:08:12.173Z,99.90
2022-08-07T04:10:42.445Z,99.90
2022-08-07T04:13:21.877Z,99.90
2022-08-07T04:15:54.642Z,99.90
2022-08-07T04:18:58.353Z,99.90
2022-08-07T04:21:08.627Z,99.90
2022-08-07T04:23:43.787Z,99.90
2022-08-07T04:26:23.988Z,99.90
2022-08-07T04:28:55.248Z,99.90
2022-08-07T04:31:38.953Z,99.90
2022-08-07T04:34:16.932Z,99.90
2022-08-07T04:36:45.340Z,99.90
2022-08-07T04:39:15.970Z,99.90
2022-08-07T04:41:44.665Z,99.90
2022-08-07T04:44:19.052Z,99.90
2022-08-07T04:47:09.222Z,99.90
2022-08-07T04:50:04.098Z,99.90
2022-08-07T04:52:51.381Z,99.90
2022-08-07T04:58:11.092Z,99.90
2022-08-07T04:59:07.716Z,99.90
2022-08-07T05:01:44.853Z,99.90
2022-08-07T05:04:18.441Z,99.90
2022-08-07T05:07:30.515Z,99.90
2022-08-07T05:10:11.199Z,99.90
2022-08-07T05:12:46.232Z,99.90
2022-08-07T05:15:26.554Z,99.90
2022-08-07T05:18:10.399Z,99.90
2022-08-07T05:20:43.574Z,99.90
2022-08-07T05:23:17.874Z,99.90
2022-08-07T05:26:13.260Z,99.90
2022-08-07T05:28:35.499Z,99.90
2022-08-07T05:31:03.702Z,99.90
2022-08-07T05:33:31.452Z,99.90
2022-08-07T05:36:04.525Z,99.90
2022-08-07T05:39:00.839Z,99.90
2022-08-07T05:41:21.879Z,99.90
2022-08-07T05:44:12.683Z,99.90
2022-08-07T05:46:38.775Z,98.80
2022-08-07T05:49:11.641Z,98.90
2022-08-07T05:51:40.733Z,98.80
2022-08-07T05:54:30.282Z,99.90
2022-08-07T05:56:57.743Z,99.90
2022-08-07T05:59:27.317Z,99.90
2022-08-07T06:01:57.161Z,99.90
2022-08-07T06:04:26.299Z,99.90
2022-08-07T06:07:03.740Z,99.90
2022-08-07T06:10:04.273Z,99.90
2022-08-07T06:12:21.066Z,96.40
2022-08-07T06:14:55.208Z,91.70
2022-08-07T06:17:37.606Z,90.40
2022-08-07T06:20:06.523Z,84.00
2022-08-07T06:22:42.278Z,81.90
2022-08-07T06:25:29.038Z,82.00
2022-08-07T06:28:04.405Z,81.30
2022-08-07T06:30:36.115Z,82.50
2022-08-07T06:33:15.676Z,79.70
2022-08-07T06:35:47.639Z,79.80
2022-08-07T06:38:30.706Z,78.70
2022-08-07T06:41:00.450Z,78.30
2022-08-07T06:43:39.383Z,78.10
2022-08-07T06:46:11.601Z,79.60
2022-08-07T06:48:41.796Z,80.40
2022-08-07T06:51:31.264Z,78.80
2022-08-07T06:55:28.696Z,76.60
2022-08-07T06:56:55.137Z,75.00
2022-08-07T07:00:13.715Z,72.00
2022-08-07T07:02:48.924Z,72.40
2022-08-07T07:05:08.346Z,71.70
2022-08-07T07:07:58.355Z,72.00
2022-08-07T07:10:34.990Z,69.50
2022-08-07T07:13:56.009Z,63.70
2022-08-07T07:16:19.742Z,59.90
2022-08-07T07:18:51.897Z,60.20
2022-08-07T07:21:40.216Z,63.00
2022-08-07T07:24:17.549Z,64.10
2022-08-07T07:26:49.744Z,61.30
2022-08-07T07:29:55.949Z,60.20
2022-08-07T07:32:14.317Z,58.00
2022-08-07T07:34:46.570Z,54.20
2022-08-07T07:37:44.249Z,52.80
2022-08-07T07:40:15.286Z,49.90
2022-08-07T07:42:47.094Z,48.00
2022-08-07T07:45:16.460Z,47.40
2022-08-07T07:47:52.786Z,49.80
2022-08-07T07:50:33.277Z,51.40
2022-08-07T07:53:20.119Z,53.10
2022-08-07T07:55:57.496Z,55.10
2022-08-07T07:58:30.711Z,55.70
2022-08-07T08:02:03.420Z,58.50
2022-08-07T08:04:10.549Z,61.20
2022-08-07T08:06:52.202Z,63.60
2022-08-07T08:09:23.879Z,65.50
2022-08-07T08:12:02.221Z,67.20
2022-08-07T08:14:34.398Z,68.90
2022-08-07T08:18:36.910Z,70.00
2022-08-07T08:20:19.030Z,70.70
2022-08-07T08:23:02.520Z,71.70
2022-08-07T08:25:52.082Z,73.30
2022-08-07T08:28:37.253Z,73.30
2022-08-07T08:31:14.720Z,73.60
2022-08-07T08:33:49.694Z,73.40
2022-08-07T08:36:30.138Z,72.00
2022-08-07T08:39:02.198Z,72.00
2022-08-07T08:41:56.930Z,69.70
2022-08-07T08:44:33.265Z,68.30
2022-08-07T08:47:27.585Z,66.80
2022-08-07T08:50:28.323Z,65.90
2022-08-07T08:53:10.921Z,65.10
2022-08-07T08:55:58.553Z,67.30
2022-08-07T08:58:57.985Z,66.30
2022-08-07T09:01:59.467Z,65.40
2022-08-07T09:04:44.467Z,67.90
2022-08-07T09:07:29.425Z,63.40
2022-08-07T09:10:21.803Z,63.00
2022-08-07T09:13:14.828Z,61.60
2022-08-07T09:16:30.377Z,59.60
2022-08-07T09:19:51.031Z,59.80
2022-08-07T09:24:52.390Z,60.00
2022-08-07T09:25:30.528Z,59.40
2022-08-07T09:30:01.427Z,59.60
2022-08-07T09:31:03.768Z,61.60
2022-08-07T09:34:18.164Z,61.00
2022-08-07T09:37:00.684Z,59.40
2022-08-07T09:39:55.489Z,60.30
2022-08-07T09:43:03.024Z,60.00
2022-08-07T09:47:50.721Z,60.30
2022-08-07T09:49:02.277Z,59.80
2022-08-07T09:52:15.801Z,58.40
2022-08-07T09:54:53.369Z,57.80
2022-08-07T09:57:46.487Z,56.00
2022-08-07T10:00:24.330Z,55.80
2022-08-07T10:04:05.372Z,55.40
2022-08-07T10:06:29.115Z,55.20
2022-08-07T10:09:01.672Z,54.90
2022-08-07T10:12:04.702Z,54.90
2022-08-07T10:15:15.396Z,55.00
2022-08-07T10:18:04.222Z,55.20
2022-08-07T10:20:36.815Z,54.60
2022-08-07T10:23:12.003Z,53.90
2022-08-07T10:26:14.887Z,54.40
2022-08-07T10:29:02.579Z,55.00
2022-08-07T10:32:03.856Z,54.30
2022-08-07T10:34:57.749Z,54.60
2022-08-07T10:37:59.945Z,52.60
2022-08-07T10:40:49.665Z,52.40
2022-08-07T10:43:29.878Z,53.70
2022-08-07T10:46:13.029Z,54.10
2022-08-07T10:48:41.514Z,53.60
2022-08-07T10:51:39.369Z,54.60
2022-08-07T10:54:28.692Z,54.40
2022-08-07T10:57:07.548Z,54.30
2022-08-07T11:00:03.970Z,54.80
2022-08-07T11:03:17.116Z,56.40
2022-08-07T11:06:08.536Z,56.80
2022-08-07T11:09:12.898Z,56.90
2022-08-07T11:12:06.648Z,55.10
2022-08-07T11:15:00.318Z,55.60
2022-08-07T11:17:43.354Z,57.30
2022-08-07T11:20:24.581Z,57.10
2022-08-07T11:23:17.501Z,55.40
2022-08-07T11:26:25.151Z,57.00
2022-08-07T11:29:05.488Z,55.80
2022-08-07T11:32:04.915Z,54.00
2022-08-07T11:34:45.082Z,54.50
2022-08-07T11:37:38.433Z,53.20
2022-08-07T11:40:19.940Z,53.40
2022-08-07T11:43:15.648Z,55.50
2022-08-07T11:46:01.296Z,56.50
2022-08-07T11:48:34.017Z,58.00
2022-08-07T11:51:44.732Z,57.50
2022-08-07T11:54:38.328Z,56.00
2022-08-07T11:58:00.044Z,58.40
2022-08-07T12:01:06.972Z,60.10
2022-08-07T12:04:11.527Z,60.10
2022-08-07T12:07:00.679Z,62.60
2022-08-07T12:09:50.941Z,60.10
2022-08-07T12:12:25.244Z,60.70
2022-08-07T12:15:17.281Z,61.70
2022-08-07T12:18:08.116Z,60.90
2022-08-07T12:21:15.999Z,61.80
2022-08-07T12:25:02.292Z,60.70
2022-08-07T12:28:09.101Z,63.30
2022-08-07T12:30:34.615Z,61.10
2022-08-07T12:33:18.577Z,62.10
2022-08-07T12:35:57.915Z,63.10
2022-08-07T12:38:39.136Z,62.10
2022-08-07T12:41:11.606Z,61.80
2022-08-07T12:44:02.349Z,62.60
2022-08-07T12:46:35.687Z,62.30
2022-08-07T12:49:25.174Z,61.80
2022-08-07T12:52:18.219Z,60.50
2022-08-07T12:55:16.460Z,62.40
2022-08-07T12:58:00.491Z,60.80
2022-08-07T13:00:51.333Z,59.90
2022-08-07T13:04:02.385Z,60.70
2022-08-07T13:07:00.442Z,62.40
2022-08-07T13:10:29.113Z,61.10
2022-08-07T13:12:54.106Z,60.50
2022-08-07T13:15:47.748Z,61.30
2022-08-07T13:18:49.003Z,62.40
2022-08-07T13:21:50.230Z,61.50
2022-08-07T13:24:38.344Z,61.20
2022-08-07T13:27:33.445Z,62.20
2022-08-07T13:30:19.539Z,62.20
2022-08-07T13:34:14.876Z,62.00
2022-08-07T13:36:05.971Z,61.20
2022-08-07T13:38:55.748Z,60.80
2022-08-07T13:41:30.193Z,62.30
2022-08-07T13:44:02.332Z,60.00
2022-08-07T13:46:38.881Z,60.50
2022-08-07T13:50:33.009Z,62.10
2022-08-07T13:52:32.481Z,61.10
2022-08-07T13:55:06.460Z,61.10
2022-08-07T13:57:38.394Z,60.30
2022-08-07T14:00:08.573Z,60.10
2022-08-07T14:02:56.519Z,60.30
2022-08-07T14:05:24.942Z,60.00
2022-08-07T14:08:07.068Z,59.30
2022-08-07T14:10:42.282Z,60.70
2022-08-07T14:13:18.811Z,59.80
2022-08-07T14:16:15.165Z,60.70
2022-08-07T14:18:49.752Z,60.80
2022-08-07T14:22:01.070Z,59.30
2022-08-07T14:24:37.420Z,58.70
2022-08-07T14:28:09.275Z,60.00
2022-08-07T14:30:14.049Z,60.40
2022-08-07T14:32:45.830Z,59.20
2022-08-07T14:35:44.596Z,59.00
2022-08-07T14:38:09.070Z,59.90
2022-08-07T14:41:17.556Z,60.50
2022-08-07T14:44:11.909Z,58.90
2022-08-07T14:46:51.748Z,58.10
2022-08-07T14:49:57.418Z,59.00
2022-08-07T14:55:09.988Z,59.40
2022-08-07T14:57:58.084Z,59.30
2022-08-07T15:00:31.244Z,59.60
2022-08-07T15:03:18.620Z,58.80
2022-08-07T15:05:55.193Z,61.00
2022-08-07T15:08:50.190Z,59.50
2022-08-07T15:11:48.899Z,61.20
2022-08-07T15:17:16.773Z,60.80
2022-08-07T15:20:31.651Z,60.60
2022-08-07T15:25:40.673Z,60.20
2022-08-07T15:28:31.056Z,60.80
2022-08-07T15:31:05.731Z,61.80
2022-08-07T15:33:36.006Z,62.20
2022-08-07T15:36:05.724Z,61.90
2022-08-07T15:38:59.111Z,61.60
2022-08-07T15:42:44.051Z,60.50
2022-08-07T15:44:17.312Z,61.90
2022-08-07T15:52:30.153Z,61.60
2022-08-07T15:55:02.183Z,61.50
2022-08-07T15:57:48.021Z,62.90
2022-08-07T16:00:22.728Z,63.00
2022-08-07T16:03:21.520Z,62.00
2022-08-07T16:06:04.225Z,62.50
2022-08-07T16:08:38.289Z,63.50
2022-08-07T16:11:26.292Z,63.30
2022-08-07T16:14:05.204Z,64.20
2022-08-07T16:16:57.159Z,65.70
2022-08-07T16:19:58.910Z,65.90
2022-08-07T16:22:55.782Z,65.70
2022-08-07T16:25:56.099Z,65.90
2022-08-07T16:29:18.237Z,66.50
2022-08-07T16:31:50.950Z,66.90
2022-08-07T16:34:50.672Z,67.00
2022-08-07T16:38:05.293Z,67.00
2022-08-07T16:40:57.249Z,67.80
2022-08-07T16:44:05.842Z,68.00
2022-08-07T16:47:07.832Z,68.10
2022-08-07T16:50:35.963Z,67.90
2022-08-07T16:53:55.535Z,68.90
2022-08-07T16:56:41.766Z,68.60
2022-08-07T16:59:46.943Z,68.50
2022-08-07T17:02:53.464Z,68.90
2022-08-07T17:06:19.903Z,69.10
2022-08-07T17:09:09.277Z,69.60
2022-08-07T17:12:36.849Z,69.60
2022-08-07T17:15:15.950Z,69.60
2022-08-07T17:17:49.124Z,69.40
2022-08-07T17:20:31.110Z,69.30
2022-08-07T17:22:57.888Z,69.70
2022-08-07T17:25:52.703Z,71.40
2022-08-07T17:28:49.918Z,70.00
2022-08-07T17:31:25.639Z,70.40
2022-08-07T17:34:33.286Z,70.20
2022-08-07T17:37:09.515Z,70.40
2022-08-07T17:40:11.122Z,70.40
2022-08-07T17:43:02.716Z,70.30
2022-08-07T17:45:54.481Z,70.80
2022-08-07T17:48:30.851Z,70.90
2022-08-07T17:51:49.260Z,71.40
2022-08-07T17:54:53.360Z,71.10
2022-08-07T17:57:58.665Z,71.40
2022-08-07T18:00:33.104Z,72.00
2022-08-07T18:04:03.992Z,72.30
2022-08-07T18:06:37.069Z,73.40
2022-08-07T18:09:06.573Z,72.80
2022-08-07T18:12:18.082Z,73.20
2022-08-07T18:14:46.438Z,74.40
2022-08-07T18:18:46.909Z,74.00
2022-08-07T18:21:06.942Z,74.50
2022-08-07T18:23:41.877Z,74.90
2022-08-07T18:26:14.759Z,75.80
2022-08-07T18:28:59.049Z,76.00
2022-08-07T18:31:53.795Z,76.30
2022-08-07T18:34:53.353Z,76.70
2022-08-07T18:38:54.814Z,77.10
2022-08-07T18:40:53.875Z,77.50
2022-08-07T18:43:49.642Z,78.00
2022-08-07T18:46:42.933Z,78.10
2022-08-07T18:50:30.307Z,78.70
2022-08-07T18:52:38.702Z,79.10
2022-08-07T18:55:57.316Z,81.00
2022-08-07T18:58:58.810Z,81.40
2022-08-07T19:02:34.609Z,82.10
2022-08-07T19:04:58.060Z,82.00
2022-08-07T19:07:52.919Z,83.80
2022-08-07T19:10:51.835Z,84.30
2022-08-07T19:13:27.478Z,87.20
2022-08-07T19:16:43.640Z,88.00
2022-08-07T19:19:31.852Z,88.50
2022-08-07T19:22:11.157Z,89.90
2022-08-07T19:24:48.328Z,90.50
2022-08-07T19:28:29.121Z,90.90
2022-08-07T19:31:05.967Z,91.30
2022-08-07T19:33:08.229Z,91.70
2022-08-07T19:35:42.094Z,92.20
2022-08-07T19:38:16.710Z,92.50
2022-08-07T19:40:50.015Z,93.00
2022-08-07T19:43:44.008Z,93.50
2022-08-07T19:46:22.494Z,94.20
2022-08-07T19:49:02.389Z,95.00
2022-08-07T19:51:52.812Z,95.50
2022-08-07T19:54:34.919Z,95.90
2022-08-07T19:58:04.556Z,96.70
2022-08-07T20:00:02.086Z,97.30
2022-08-07T20:02:34.567Z,97.80
2022-08-07T20:05:07.703Z,98.40
2022-08-07T20:07:47.907Z,98.80
2022-08-07T20:10:37.234Z,99.30
2022-08-07T20:13:23.560Z,99.90
2022-08-07T20:15:54.053Z,99.90
2022-08-07T20:18:33.024Z,99.90
2022-08-07T20:21:14.461Z,99.90
2022-08-07T20:24:01.034Z,99.90
2022-08-07T20:26:44.748Z,99.90
2022-08-07T20:29:48.997Z,99.90
2022-08-07T20:32:05.698Z,99.90
2022-08-07T20:34:54.566Z,99.90
2022-08-07T20:37:33.810Z,99.90
2022-08-07T20:40:05.398Z,99.90
2022-08-07T20:42:56.328Z,99.90
2022-08-07T20:45:32.620Z,99.90
2022-08-07T20:48:28.485Z,99.90
2022-08-07T20:51:01.097Z,99.90
2022-08-07T20:54:02.967Z,99.90
2022-08-07T20:56:25.786Z,99.90
2022-08-07T20:58:55.401Z,99.90
2022-08-07T21:01:23.147Z,99.90
2022-08-07T21:04:19.810Z,99.90
2022-08-07T21:06:53.214Z,99.90
2022-08-07T21:09:24.470Z,99.90
2022-08-07T21:11:57.656Z,99.90
2022-08-07T21:14:33.069Z,99.90
2022-08-07T21:18:03.121Z,99.90
2022-08-07T21:20:04.913Z,99.90
2022-08-07T21:22:44.922Z,99.90
2022-08-07T21:25:28.966Z,99.90
2022-08-07T21:28:02.610Z,99.90
2022-08-07T21:30:52.016Z,99.90
2022-08-07T21:33:38.615Z,99.90
2022-08-07T21:36:31.424Z,99.90
2022-08-07T21:39:45.378Z,99.90
2022-08-07T21:46:03.324Z,99.90
2022-08-07T21:48:28.214Z,99.90
2022-08-07T21:51:19.434Z,99.90
2022-08-07T21:53:53.173Z,99.90
2022-08-07T21:57:15.980Z,99.90
2022-08-07T22:00:23.270Z,99.90
2022-08-07T22:03:10.783Z,99.90
2022-08-07T22:05:55.077Z,99.90
2022-08-07T22:08:26.437Z,99.90
2022-08-07T22:10:59.828Z,99.90
2022-08-07T22:13:51.037Z,99.90
2022-08-07T22:16:44.258Z,99.90
2022-08-07T22:19:16.029Z,99.90
2022-08-07T22:22:05.166Z,99.90
2022-08-07T22:25:02.836Z,99.90
2022-08-07T22:28:03.011Z,99.90
2022-08-07T22:30:31.844Z,99.90
2022-08-07T22:33:09.428Z,99.90
2022-08-07T22:35:42.552Z,99.90
2022-08-07T22:38:25.990Z,99.90
2022-08-07T22:41:29.141Z,99.90
2022-08-07T22:44:19.254Z,99.90
2022-08-07T22:47:04.412Z,99.90
2022-08-07T22:49:54.819Z,99.90
2022-08-07T22:52:43.372Z,99.90
2022-08-07T22:55:51.322Z,99.90
2022-08-07T22:58:45.544Z,99.90
2022-08-07T23:01:12.228Z,99.90
2022-08-07T23:04:11.654Z,99.90
2022-08-07T23:06:57.594Z,99.90
2022-08-07T23:10:00.490Z,99.90
2022-08-07T23:12:45.901Z,99.90
2022-08-07T23:16:05.824Z,99.90
2022-08-07T23:18:38.144Z,99.90
2022-08-07T23:21:36.748Z,99.90
2022-08-07T23:24:34.973Z,99.90
2022-08-07T23:27:14.609Z,99.90
2022-08-07T23:30:38.976Z,99.90
2022-08-07T23:34:21.551Z,99.90
2022-08-07T23:36:03.626Z,99.90
2022-08-07T23:38:36.508Z,99.90
2022-08-07T23:41:47.436Z,99.90
2022-08-07T23:44:40.916Z,99.90
2022-08-07T23:47:26.116Z,99.90
2022-08-07T23:50:17.603Z,99.90
2022-08-07T23:53:00.817Z,99.90
2022-08-07T23:55:53.572Z,99.90
2022-08-07T23:58:32.423Z,99.90
